Decoded Metar for LFMD (CANNES in FRANCE) (IATA:CEQ) | Meteo·Mobile Aviation Weather
aviador You're here:

LFMD Decoded Metar

CANNES in FRANCE
Report Time2019-07-21 16:30:00
UTC Time2019-07-21 16:52:58
Flight Rules vfr VFR
Wind140° at 06 kt
W.Decomp.*RWY 17: 5.2 kt HW 3 kt LCW
RWY 22: 1.0 kt HW 5.9 kt LCW
Visibility9999 m
Phenomena:N/A
Clouds:N/A
Expected CloudBase > 2,800 ft AGL from Temp-Dew spread
CeilingNone
Temp27°C (ISA +12)
Dew Point20°C (66% RH)
Heat Index28.5°C
QNH1019 hPa
Density Alt1,529 ft
Elevation30 ft
Report Wrong Elevation
Raw Report
LFMD 211630Z AUTO 14006KT 090V190 CAVOK 27/20 Q1019 NOSIG=

Extra information for LFMD:More info

Metar Taf Metar & Taf Last 4 Metars F.Rules Stats Wind Profile Meteogram Temp Stats Airport Information Weather charts Add Link Nearby VenuesMetar ALERT Operation Metar Decoded Social comments